Time;durP1;ratioP1;P1;durP2;ratioP2;P2;SDS_P1;SDS_P2;PMS_P1;PMS_P2;Temp;Humidity;BMP_temperature;BMP_pressure;BME280_temperature;BME280_humidity;BME280_pressure;Samples;Min_cycle;Max_cycle;Signal;HPM_P1;HPM_P2
2021/08/22 00:00:45;;;;;;;0.70;0.40;;;;;;;20.11;51.25;101863.34;5052831;28;20115;-62
2021/08/22 00:03:11;;;;;;;1.52;0.40;;;;;;;20.14;51.08;101865.75;5052382;28;20060;-61
2021/08/22 00:05:36;;;;;;;0.95;0.43;;;;;;;20.11;50.96;101857.88;5052460;28;20063;-62
2021/08/22 00:08:02;;;;;;;1.02;0.40;;;;;;;20.11;50.85;101860.59;5052467;28;20025;-61
2021/08/22 00:10:27;;;;;;;1.13;0.30;;;;;;;20.08;50.94;101865.53;5052814;28;20043;-61
2021/08/22 00:12:53;;;;;;;2.10;0.50;;;;;;;20.14;51.41;101860.28;5052374;28;20068;-61
2021/08/22 00:15:19;;;;;;;1.65;0.28;;;;;;;20.05;51.82;101860.41;5053092;28;20029;-60
2021/08/22 00:17:45;;;;;;;1.27;0.50;;;;;;;20.05;51.91;101861.25;5052764;28;20033;-60
2021/08/22 00:20:10;;;;;;;2.10;0.50;;;;;;;20.06;50.68;101868.44;5052199;28;20028;-61
2021/08/22 00:22:36;;;;;;;1.52;0.40;;;;;;;20.00;51.92;101862.75;5036479;28;20526;-60
2021/08/22 00:25:02;;;;;;;2.83;0.80;;;;;;;20.05;51.52;101861.25;5055761;28;20028;-61
2021/08/22 00:27:28;;;;;;;2.88;0.30;;;;;;;20.03;50.63;101860.56;5066234;28;20032;-61
2021/08/22 00:29:53;;;;;;;1.30;0.20;;;;;;;20.00;50.80;101863.59;5074029;28;20020;-61
2021/08/22 00:32:18;;;;;;;1.33;0.35;;;;;;;19.98;52.34;101862.88;5075649;28;20073;-61
2021/08/22 00:34:44;;;;;;;1.50;0.20;;;;;;;19.99;51.00;101867.34;5075979;28;20457;-61
2021/08/22 00:37:09;;;;;;;1.95;0.30;;;;;;;20.02;51.55;101861.56;5076025;28;20024;-61
2021/08/22 00:39:34;;;;;;;2.08;0.40;;;;;;;19.97;51.50;101868.50;5075890;28;20389;-62
2021/08/22 00:42:00;;;;;;;0.88;0.30;;;;;;;20.01;51.32;101869.94;5075399;28;20473;-61
2021/08/22 00:44:26;;;;;;;3.03;0.73;;;;;;;20.00;51.60;101869.06;5075635;28;20024;-61
2021/08/22 00:46:53;;;;;;;1.38;0.40;;;;;;;19.97;51.18;101869.34;5075782;28;20027;-62
2021/08/22 00:49:28;;;;;;;2.72;0.65;;;;;;;20.00;51.03;101869.06;5075876;28;20033;-61
2021/08/22 00:51:54;;;;;;;1.92;0.40;;;;;;;20.00;51.22;101869.06;5075619;28;20115;-62
2021/08/22 00:54:19;;;;;;;1.77;0.43;;;;;;;19.99;52.65;101877.41;5075559;28;20108;-61
2021/08/22 00:56:45;;;;;;;0.90;0.20;;;;;;;20.03;51.44;101876.94;5075497;28;20052;-62
2021/08/22 00:59:18;;;;;;;2.22;0.45;;;;;;;19.93;51.82;101883.47;5076803;28;20074;-61
2021/08/22 01:01:49;;;;;;;0.25;0.25;;;;;;;19.98;52.08;101878.41;5075782;28;20028;-61
2021/08/22 01:04:51;;;;;;;1.45;0.30;;;;;;;19.97;51.82;101880.28;5075778;28;20044;-60
2021/08/22 01:07:40;;;;;;;0.55;0.30;;;;;;;19.98;51.91;101879.25;5072365;28;20098;-61
2021/08/22 01:10:09;;;;;;;1.08;0.57;;;;;;;19.97;52.28;101883.00;5075334;28;20029;-61
2021/08/22 01:12:41;;;;;;;1.45;0.38;;;;;;;19.94;51.67;101886.06;5075252;28;20034;-61
2021/08/22 01:15:08;;;;;;;0.50;0.20;;;;;;;20.01;52.00;101880.84;5075217;28;20115;-61
2021/08/22 01:17:39;;;;;;;1.60;0.30;;;;;;;19.91;52.01;101886.38;5073741;28;20025;-61
2021/08/22 01:20:23;;;;;;;0.88;0.30;;;;;;;19.91;52.66;101880.91;5055355;28;20416;-60
2021/08/22 01:22:50;;;;;;;3.22;0.85;;;;;;;19.91;51.56;101891.84;5054902;28;20056;-60
2021/08/22 01:25:16;;;;;;;1.95;0.30;;;;;;;19.91;52.11;101883.66;5054965;28;20056;-61
2021/08/22 01:27:43;;;;;;;1.88;0.60;;;;;;;19.94;52.06;101886.06;5054666;28;20404;-61
2021/08/22 01:30:12;;;;;;;2.25;0.45;;;;;;;19.87;51.43;101886.84;5054662;28;20037;-61
2021/08/22 01:32:46;;;;;;;1.15;0.32;;;;;;;19.91;52.02;101890.97;5056666;28;20029;-61
2021/08/22 01:35:13;;;;;;;1.37;0.20;;;;;;;19.91;52.38;101883.66;5053792;28;20029;-61
2021/08/22 01:37:40;;;;;;;1.45;0.40;;;;;;;19.94;51.54;101886.06;5037126;28;20337;-61
2021/08/22 01:40:09;;;;;;;1.02;0.30;;;;;;;19.86;51.72;101888.72;5054774;28;20494;-62
2021/08/22 01:42:35;;;;;;;0.93;0.55;;;;;;;19.90;51.98;101895.56;5054564;28;20028;-61
2021/08/22 01:45:04;;;;;;;0.70;0.38;;;;;;;19.93;51.77;101889.78;5054666;28;20017;-61
2021/08/22 01:47:30;;;;;;;1.42;0.50;;;;;;;19.96;51.73;101889.47;5057001;28;20025;-62
2021/08/22 01:49:56;;;;;;;1.90;0.50;;;;;;;19.85;52.08;101892.47;5074410;28;20016;-61
2021/08/22 01:52:24;;;;;;;0.50;0.40;;;;;;;19.86;51.85;101888.72;5067854;28;20021;-61
2021/08/22 01:54:49;;;;;;;3.03;0.50;;;;;;;19.91;52.17;101890.97;5062044;28;20067;-60
2021/08/22 01:57:14;;;;;;;1.25;0.40;;;;;;;19.85;51.63;101892.47;5074275;28;20434;-60
2021/08/22 01:59:40;;;;;;;0.70;0.30;;;;;;;19.84;52.10;101890.75;5074411;28;20135;-61
2021/08/22 02:02:05;;;;;;;0.65;0.40;;;;;;;19.86;52.59;101898.78;5054722;28;20079;-61
2021/08/22 02:04:49;;;;;;;1.30;0.30;;;;;;;19.82;51.09;101898.25;5054041;28;20021;-61
2021/08/22 02:07:19;;;;;;;1.50;0.40;;;;;;;19.85;52.40;101897.94;5055292;28;20032;-62
2021/08/22 02:09:59;;;;;;;1.05;0.20;;;;;;;19.83;51.18;101903.53;5054253;28;20025;-61
2021/08/22 02:12:25;;;;;;;1.52;0.55;;;;;;;19.80;52.99;101897.50;5054534;28;20060;-62
2021/08/22 02:15:10;;;;;;;0.85;0.40;;;;;;;19.83;52.21;101895.34;5053892;28;20029;-61
2021/08/22 02:17:48;;;;;;;1.83;0.55;;;;;;;19.86;51.57;101899.63;5057575;28;20020;-61
2021/08/22 02:20:13;;;;;;;0.63;0.20;;;;;;;19.80;51.38;101898.38;5073978;28;20499;-61
2021/08/22 02:22:42;;;;;;;2.15;0.88;;;;;;;19.83;51.95;101899.97;5073712;28;20020;-61
2021/08/22 02:25:08;;;;;;;2.42;0.40;;;;;;;19.80;52.27;101895.63;5073704;28;20633;-61
2021/08/22 02:27:34;;;;;;;2.40;0.50;;;;;;;19.74;52.04;101900.88;5073569;28;20126;-60
2021/08/22 02:29:59;;;;;;;1.70;0.52;;;;;;;19.79;51.50;101895.81;5073731;28;20591;-60
2021/08/22 02:32:25;;;;;;;0.40;0.15;;;;;;;19.81;52.13;101896.50;5073702;28;20021;-60
2021/08/22 02:34:51;;;;;;;1.23;0.50;;;;;;;19.74;53.06;101903.59;5073430;28;20031;-60
2021/08/22 02:37:17;;;;;;;1.10;0.30;;;;;;;19.77;52.04;101900.56;5074729;28;20028;-61
2021/08/22 02:39:43;;;;;;;1.33;0.40;;;;;;;19.77;51.98;101900.56;5073646;28;20066;-61
2021/08/22 02:42:09;;;;;;;1.00;0.43;;;;;;;19.78;52.75;101905.00;5073599;28;20599;-60
2021/08/22 02:44:34;;;;;;;0.60;0.20;;;;;;;19.72;51.67;101900.19;5074052;28;20025;-61
2021/08/22 02:46:59;;;;;;;1.30;0.30;;;;;;;19.79;52.25;101903.97;5072049;28;20116;-61
2021/08/22 02:49:25;;;;;;;2.53;0.52;;;;;;;19.74;52.13;101900.88;5053217;28;20107;-62
2021/08/22 02:51:51;;;;;;;3.13;0.65;;;;;;;19.72;51.61;101900.19;5053893;28;20037;-61
2021/08/22 02:54:16;;;;;;;2.10;0.55;;;;;;;19.71;52.04;101912.09;5053409;28;20032;-61
2021/08/22 02:56:42;;;;;;;1.75;0.60;;;;;;;19.70;52.50;101911.25;5053275;28;20142;-61
2021/08/22 02:59:07;;;;;;;1.42;0.40;;;;;;;19.71;51.88;101912.09;5053052;28;20041;-61
2021/08/22 03:01:33;;;;;;;1.58;0.30;;;;;;;19.71;51.63;101914.84;5053197;28;20074;-61
2021/08/22 03:03:59;;;;;;;2.35;0.68;;;;;;;19.74;51.26;101918.09;5053088;28;20102;-61
2021/08/22 03:06:24;;;;;;;1.85;0.40;;;;;;;19.72;52.26;101916.53;5053331;28;20056;-61
2021/08/22 03:08:49;;;;;;;1.48;0.43;;;;;;;19.79;50.89;101925.81;5052461;28;20458;-61
2021/08/22 03:11:19;;;;;;;3.00;0.45;;;;;;;19.80;51.72;101917.47;5053497;28;20029;-60
2021/08/22 03:13:46;;;;;;;3.20;0.73;;;;;;;19.79;51.96;101915.75;5053158;28;20029;-61
2021/08/22 03:16:11;;;;;;;1.10;0.40;;;;;;;19.78;51.10;101918.63;5052822;28;20036;-61
2021/08/22 03:18:37;;;;;;;1.50;0.30;;;;;;;19.66;52.35;101920.75;5053138;28;20029;-61
2021/08/22 03:21:02;;;;;;;1.65;0.50;;;;;;;19.73;51.18;101919.13;5052800;28;20120;-61
2021/08/22 03:23:27;;;;;;;4.75;0.70;;;;;;;19.72;51.43;101922.84;5053638;28;20031;-61
2021/08/22 03:25:53;;;;;;;1.52;0.40;;;;;;;19.65;52.14;101923.63;5052473;28;20099;-61
2021/08/22 03:28:18;;;;;;;1.38;0.30;;;;;;;19.68;51.77;101928.78;5052584;28;20167;-61
2021/08/22 03:30:44;;;;;;;1.38;0.32;;;;;;;19.65;51.33;101929.06;5053022;28;20032;-62
2021/08/22 03:33:09;;;;;;;3.20;0.57;;;;;;;19.69;51.67;101925.91;5052248;28;21721;-59
2021/08/22 03:35:34;;;;;;;1.65;0.45;;;;;;;19.67;51.79;101932.53;5054446;28;20045;-62
2021/08/22 03:38:00;;;;;;;1.13;0.30;;;;;;;19.67;51.46;101927.06;5053140;28;20470;-61
2021/08/22 03:40:25;;;;;;;6.03;0.88;;;;;;;19.62;51.77;101934.84;5069413;28;20515;-61
2021/08/22 03:42:50;;;;;;;1.20;0.30;;;;;;;19.67;51.41;101932.53;5072658;28;20096;-61
2021/08/22 03:45:16;;;;;;;1.63;0.25;;;;;;;19.79;51.29;101936.72;5054628;28;20025;-61
2021/08/22 03:47:41;;;;;;;1.40;0.43;;;;;;;19.67;51.91;101933.38;5071975;28;20023;-61
2021/08/22 03:50:07;;;;;;;2.35;0.35;;;;;;;19.70;51.32;101937.66;5072530;28;20050;-61
2021/08/22 03:52:32;;;;;;;2.35;0.40;;;;;;;19.75;51.54;101933.47;5073147;28;20483;-60
2021/08/22 03:54:58;;;;;;;0.82;0.35;;;;;;;19.72;51.23;101935.66;5072398;28;20104;-61
2021/08/22 03:57:23;;;;;;;1.30;0.60;;;;;;;19.63;51.83;101936.56;5074070;28;20400;-61
2021/08/22 03:59:48;;;;;;;1.48;0.43;;;;;;;19.62;51.62;101940.28;5076381;28;20364;-61
2021/08/22 04:02:14;;;;;;;1.13;0.32;;;;;;;20.10;50.17;101946.25;5076478;28;20056;-60
2021/08/22 04:04:39;;;;;;;0.52;0.20;;;;;;;20.90;48.35;101936.16;5077560;28;20078;-60
2021/08/22 04:07:05;;;;;;;1.90;0.32;;;;;;;21.32;47.45;101935.34;5076317;28;20025;-61
2021/08/22 04:09:30;;;;;;;1.90;0.40;;;;;;;21.53;46.96;101934.94;5076629;28;20036;-61
2021/08/22 04:11:57;;;;;;;0.95;0.57;;;;;;;21.69;47.26;101931.38;5076348;28;20024;-60
2021/08/22 04:14:23;;;;;;;0.50;0.28;;;;;;;21.81;47.12;101938.22;5076018;28;20060;-61
2021/08/22 04:16:48;;;;;;;0.60;0.20;;;;;;;21.90;47.00;101943.56;5075698;28;20090;-61
2021/08/22 04:19:14;;;;;;;1.83;0.65;;;;;;;21.98;46.80;101939.13;5076051;28;20492;-61
2021/08/22 04:21:41;;;;;;;0.73;0.30;;;;;;;22.05;47.20;101945.69;5077176;28;20032;-62
2021/08/22 04:24:07;;;;;;;1.63;0.20;;;;;;;22.09;48.51;101941.56;5076031;28;20025;-62
2021/08/22 04:26:33;;;;;;;0.75;0.20;;;;;;;22.05;47.71;101940.22;5075755;28;20019;-61
2021/08/22 04:28:58;;;;;;;0.63;0.10;;;;;;;22.04;47.49;101939.31;5076003;28;20020;-61
2021/08/22 04:31:23;;;;;;;1.10;0.30;;;;;;;22.20;47.35;101939.38;5075897;28;20033;-61
2021/08/22 04:33:49;;;;;;;0.95;0.30;;;;;;;22.12;46.89;101938.50;5076037;28;20377;-60
2021/08/22 04:36:14;;;;;;;0.77;0.35;;;;;;;22.20;48.03;101941.25;5075807;28;20040;-61
2021/08/22 04:38:45;;;;;;;1.05;0.32;;;;;;;22.25;47.30;101944.31;5078067;28;20030;-59
2021/08/22 04:41:19;;;;;;;0.57;0.32;;;;;;;22.27;47.36;101955.97;5058839;28;20089;-61
2021/08/22 04:43:45;;;;;;;1.70;0.30;;;;;;;22.30;48.02;101958.34;5075805;28;20021;-62
2021/08/22 04:46:10;;;;;;;1.15;0.30;;;;;;;22.32;47.62;101963.66;5075736;28;20357;-60
2021/08/22 04:48:36;;;;;;;1.00;0.40;;;;;;;22.34;47.72;101961.59;5057132;28;20033;-61
2021/08/22 04:51:01;;;;;;;0.50;0.30;;;;;;;22.32;47.57;101964.50;5055279;28;20033;-60
2021/08/22 04:53:26;;;;;;;0.65;0.22;;;;;;;22.33;48.77;101955.25;5056110;28;20053;-61
2021/08/22 04:55:52;;;;;;;1.48;0.35;;;;;;;22.32;47.64;101966.41;5055105;28;20048;-62
2021/08/22 04:58:17;;;;;;;1.00;0.30;;;;;;;22.40;48.41;101956.31;5055503;28;20520;-61
2021/08/22 05:00:42;;;;;;;0.50;0.17;;;;;;;22.40;48.03;101955.47;5055254;28;20025;-61
2021/08/22 05:03:08;;;;;;;0.93;0.30;;;;;;;22.42;48.76;101959.72;5055355;28;20115;-61
2021/08/22 05:05:33;;;;;;;1.17;0.38;;;;;;;22.48;48.12;101953.56;5055485;28;20023;-61
2021/08/22 05:07:58;;;;;;;1.67;0.30;;;;;;;22.45;48.42;101959.38;5054804;28;20021;-61
2021/08/22 05:10:24;;;;;;;0.63;0.25;;;;;;;22.46;49.33;101961.09;5057266;28;20029;-61
2021/08/22 05:12:49;;;;;;;0.40;0.20;;;;;;;22.46;48.42;101963.84;5053966;28;20478;-61
2021/08/22 05:15:15;;;;;;;0.75;0.40;;;;;;;22.48;49.14;101963.66;5054902;28;20355;-61
2021/08/22 05:17:40;;;;;;;0.25;0.15;;;;;;;22.41;49.43;101963.50;5065522;28;20028;-60
2021/08/22 05:20:06;;;;;;;0.85;0.20;;;;;;;22.52;49.28;101971.38;5075114;28;20465;-61
2021/08/22 05:22:32;;;;;;;0.55;0.40;;;;;;;22.55;49.28;101966.59;5075181;28;20020;-61
2021/08/22 05:24:57;;;;;;;1.48;0.30;;;;;;;22.59;48.21;101976.16;5073379;28;20021;-61
2021/08/22 05:27:22;;;;;;;1.25;0.30;;;;;;;22.59;48.91;101965.22;5074694;28;20028;-61
2021/08/22 05:29:48;;;;;;;0.47;0.22;;;;;;;22.63;48.55;101969.31;5075028;28;20024;-62
2021/08/22 05:32:13;;;;;;;2.05;0.30;;;;;;;22.57;48.82;101967.28;5074329;28;20122;-61
2021/08/22 05:34:38;;;;;;;1.88;0.30;;;;;;;22.55;48.59;101974.81;5055948;28;20074;-62
2021/08/22 05:37:04;;;;;;;0.80;0.20;;;;;;;22.56;48.98;101977.38;5054804;28;20029;-61
2021/08/22 05:39:29;;;;;;;0.68;0.40;;;;;;;22.58;48.05;101964.34;5055171;28;20505;-61
2021/08/22 05:41:54;;;;;;;1.88;0.82;;;;;;;22.57;49.22;101967.28;5054610;28;20470;-61
2021/08/22 05:44:20;;;;;;;0.28;0.20;;;;;;;22.62;48.88;101970.34;5055465;28;20025;-61
2021/08/22 05:46:45;;;;;;;1.20;0.20;;;;;;;22.56;48.75;101973.78;5054433;28;20025;-60
2021/08/22 05:49:10;;;;;;;2.20;0.40;;;;;;;22.57;49.01;101978.22;5054350;28;20033;-61
2021/08/22 05:51:36;;;;;;;0.95;0.20;;;;;;;22.58;48.89;101974.47;5053249;28;20032;-61
2021/08/22 05:54:01;;;;;;;0.98;0.28;;;;;;;22.68;49.34;101980.63;5052336;28;20452;-61
2021/08/22 05:56:26;;;;;;;0.85;0.30;;;;;;;22.68;49.12;101976.00;5071060;28;20024;-61
2021/08/22 05:58:52;;;;;;;0.63;0.30;;;;;;;22.66;48.77;101974.44;5055496;28;20434;-61
2021/08/22 06:01:17;;;;;;;0.60;0.20;;;;;;;22.70;48.89;101973.94;5054165;28;20025;-61
2021/08/22 06:03:42;;;;;;;1.55;0.50;;;;;;;22.72;49.79;101976.50;5054321;28;20028;-61
2021/08/22 06:06:08;;;;;;;0.47;0.22;;;;;;;22.70;49.15;101978.56;5054155;28;20608;-62
2021/08/22 06:08:34;;;;;;;0.32;0.15;;;;;;;22.68;49.41;101980.63;5054210;28;20044;-60
2021/08/22 06:11:00;;;;;;;1.17;0.30;;;;;;;22.66;49.04;101969.81;5063189;28;20024;-61
2021/08/22 06:13:25;;;;;;;1.23;0.40;;;;;;;22.75;49.14;101981.63;5074216;28;20504;-61
2021/08/22 06:15:50;;;;;;;0.93;0.20;;;;;;;22.74;48.40;101977.19;5073673;28;20028;-61
2021/08/22 06:18:19;;;;;;;0.50;0.20;;;;;;;22.75;48.76;101976.16;5073976;28;20369;-59
2021/08/22 06:20:45;;;;;;;1.67;0.30;;;;;;;22.73;48.64;101981.81;5074397;28;20103;-61
2021/08/22 06:23:10;;;;;;;0.47;0.13;;;;;;;22.75;49.79;101987.13;5074043;28;20107;-60
2021/08/22 06:25:36;;;;;;;1.20;0.38;;;;;;;22.78;49.21;101987.63;5073840;28;20033;-60
2021/08/22 06:28:01;;;;;;;2.72;0.50;;;;;;;22.75;49.08;101977.00;5073193;28;20113;-60
2021/08/22 06:30:26;;;;;;;1.92;0.82;;;;;;;22.74;49.80;101993.63;5073891;28;20074;-61
2021/08/22 06:32:52;;;;;;;1.15;0.50;;;;;;;22.76;48.41;102000.66;5073408;28;20039;-61
2021/08/22 06:35:17;;;;;;;0.22;0.20;;;;;;;22.71;49.05;101989.34;5073540;28;20054;-61
2021/08/22 06:37:43;;;;;;;0.95;0.40;;;;;;;22.79;50.12;101999.44;5073540;28;20024;-61
2021/08/22 06:40:09;;;;;;;1.13;0.32;;;;;;;22.81;49.28;101997.38;5071984;28;20031;-60
2021/08/22 06:42:35;;;;;;;0.40;0.20;;;;;;;22.78;49.57;102003.22;5073656;28;20043;-61
2021/08/22 06:45:01;;;;;;;1.08;0.50;;;;;;;22.89;48.67;102011.13;5073445;28;20485;-61
2021/08/22 06:47:26;;;;;;;2.33;0.30;;;;;;;22.84;48.93;101999.81;5073475;28;20111;-62
2021/08/22 06:49:52;;;;;;;0.22;0.22;;;;;;;22.78;49.63;102012.31;5055051;28;20472;-61
2021/08/22 06:52:17;;;;;;;1.30;0.60;;;;;;;22.79;49.37;102005.78;5073303;28;20027;-62
2021/08/22 06:54:44;;;;;;;2.05;0.30;;;;;;;22.83;49.86;102002.72;5073674;28;20038;-60
2021/08/22 06:57:11;;;;;;;1.25;0.50;;;;;;;22.85;49.98;102004.28;5073234;28;20526;-61
2021/08/22 06:59:37;;;;;;;0.90;0.40;;;;;;;22.92;48.65;102005.28;5073276;28;20049;-61
2021/08/22 07:02:02;;;;;;;0.40;0.10;;;;;;;22.87;49.33;102013.19;5073136;28;20028;-61
2021/08/22 07:04:28;;;;;;;1.70;0.50;;;;;;;22.88;49.21;102003.94;5073151;28;20055;-61
2021/08/22 07:06:53;;;;;;;2.10;0.22;;;;;;;22.83;49.47;101998.09;5072614;28;20046;-60
2021/08/22 07:09:18;;;;;;;0.98;0.20;;;;;;;22.90;49.14;102004.63;5072646;28;20054;-60
2021/08/22 07:11:44;;;;;;;0.50;0.30;;;;;;;22.87;48.82;102004.97;5061755;28;20025;-60
2021/08/22 07:14:10;;;;;;;0.75;0.30;;;;;;;22.84;49.62;102005.28;5071442;28;20416;-60
2021/08/22 07:16:35;;;;;;;3.13;0.60;;;;;;;22.89;49.14;102005.66;5053075;28;20438;-60
2021/08/22 07:19:01;;;;;;;0.80;0.55;;;;;;;22.90;49.59;102012.84;5052874;28;20028;-61
2021/08/22 07:21:26;;;;;;;1.55;0.47;;;;;;;22.91;49.81;102002.72;5053168;28;20056;-59
2021/08/22 07:23:51;;;;;;;0.20;0.10;;;;;;;22.90;49.38;102012.00;5053344;28;20488;-62
2021/08/22 07:26:17;;;;;;;0.60;0.35;;;;;;;22.89;48.53;102013.88;5053028;28;20025;-61
2021/08/22 07:28:42;;;;;;;1.05;0.40;;;;;;;22.92;49.06;102008.03;5052470;28;20082;-60
2021/08/22 07:31:07;;;;;;;0.55;0.40;;;;;;;22.95;49.21;102004.94;5052324;28;20476;-61
2021/08/22 07:33:34;;;;;;;0.60;0.20;;;;;;;22.89;49.14;102008.38;5052676;28;20036;-62
2021/08/22 07:36:00;;;;;;;0.35;0.28;;;;;;;22.89;49.12;102004.78;5052789;28;20025;-61
2021/08/22 07:38:26;;;;;;;1.42;0.43;;;;;;;22.95;48.74;102010.44;5052868;28;20037;-62
2021/08/22 07:40:51;;;;;;;1.95;0.50;;;;;;;22.93;49.42;102004.25;5052856;28;20036;-61
2021/08/22 07:43:17;;;;;;;1.42;0.28;;;;;;;22.88;49.99;102003.94;5052979;28;20056;-61
2021/08/22 07:45:43;;;;;;;1.00;0.30;;;;;;;22.90;49.01;102007.34;5052883;28;20434;-61
2021/08/22 07:48:09;;;;;;;2.20;0.50;;;;;;;22.90;49.17;102007.34;5052299;28;20033;-61
2021/08/22 07:50:35;;;;;;;0.30;0.20;;;;;;;22.94;49.67;102007.88;5052662;28;20025;-61
2021/08/22 07:53:00;;;;;;;0.93;0.20;;;;;;;22.91;50.01;102003.59;5053033;28;20474;-62
2021/08/22 07:55:26;;;;;;;0.95;0.40;;;;;;;22.96;49.05;102001.16;5052484;28;20052;-62
2021/08/22 07:57:51;;;;;;;1.70;0.38;;;;;;;22.92;49.15;102005.28;5052360;28;20076;-62
2021/08/22 08:00:17;;;;;;;0.30;0.10;;;;;;;22.96;48.90;102011.28;5052618;28;20432;-62
2021/08/22 08:02:42;;;;;;;1.13;0.40;;;;;;;22.89;48.95;102005.66;5063542;28;20054;-61
2021/08/22 08:05:08;;;;;;;3.28;0.40;;;;;;;22.90;49.65;102001.03;5074941;28;20019;-62
2021/08/22 08:07:34;;;;;;;2.92;0.57;;;;;;;22.95;49.23;102004.09;5072876;28;20461;-61
2021/08/22 08:09:59;;;;;;;1.05;0.35;;;;;;;22.96;50.45;101998.44;5072454;28;20591;-62
2021/08/22 08:12:24;;;;;;;1.20;0.30;;;;;;;22.96;49.53;102000.31;5067458;28;20171;-62
2021/08/22 08:14:50;;;;;;;0.65;0.40;;;;;;;22.97;49.50;101991.91;5052235;28;20025;-62
2021/08/22 08:17:15;;;;;;;1.40;0.30;;;;;;;22.97;49.36;101994.66;5052606;28;20029;-61
2021/08/22 08:19:40;;;;;;;0.38;0.20;;;;;;;22.94;49.85;102005.97;5064001;28;20461;-62
2021/08/22 08:22:07;;;;;;;0.40;0.25;;;;;;;22.94;49.64;102003.22;5072246;28;20036;-62
2021/08/22 08:24:32;;;;;;;0.95;0.45;;;;;;;22.96;49.01;102009.41;5072380;28;20024;-62
2021/08/22 08:26:58;;;;;;;0.60;0.20;;;;;;;22.97;49.26;102013.00;5072077;28;20377;-62
2021/08/22 08:29:23;;;;;;;0.65;0.20;;;;;;;22.99;49.67;102011.78;5071692;28;20560;-62
2021/08/22 08:31:48;;;;;;;1.20;0.55;;;;;;;22.94;49.86;102014.19;5072318;28;20183;-61
2021/08/22 08:34:13;;;;;;;3.30;0.68;;;;;;;22.99;49.40;102017.28;5073039;28;20078;-61
2021/08/22 08:36:39;;;;;;;0.10;0.10;;;;;;;22.98;49.84;102015.56;5072014;28;20039;-62
2021/08/22 08:39:04;;;;;;;2.47;0.25;;;;;;;22.97;49.10;102022.06;5072122;28;20473;-61
2021/08/22 08:41:30;;;;;;;0.68;0.25;;;;;;;23.01;49.68;102028.94;5072324;28;20512;-62
2021/08/22 08:43:55;;;;;;;0.52;0.30;;;;;;;23.04;49.97;102025.84;5074054;28;20020;-62
2021/08/22 08:46:45;;;;;;;2.40;0.47;;;;;;;22.98;49.88;102020.19;5076560;28;20032;-62
2021/08/22 08:49:42;;;;;;;1.75;0.40;;;;;;;23.03;49.90;102018.66;5013098;28;20046;-61
2021/08/22 08:52:36;;;;;;;0.68;0.40;;;;;;;23.05;50.26;102021.22;5013692;28;20026;-60
2021/08/22 08:55:24;;;;;;;2.47;0.30;;;;;;;23.00;48.86;102029.94;5012723;28;20125;-62
2021/08/22 08:57:49;;;;;;;1.88;0.40;;;;;;;23.04;49.54;102031.34;5059761;22;20052;-62
2021/08/22 09:00:23;;;;;;;1.67;0.47;;;;;;;23.05;49.43;102018.47;5058127;28;20039;-60
2021/08/22 09:02:49;;;;;;;1.00;0.40;;;;;;;23.01;49.61;102026.22;5055845;28;20516;-61
2021/08/22 09:05:26;;;;;;;1.27;0.50;;;;;;;23.03;49.79;102024.16;5055449;28;20095;-62
2021/08/22 09:08:18;;;;;;;0.40;0.20;;;;;;;22.99;49.10;102028.25;5055548;28;20086;-61
2021/08/22 09:11:15;;;;;;;1.67;0.50;;;;;;;23.03;49.12;102032.38;5055110;28;20028;-60
2021/08/22 09:13:46;;;;;;;0.50;0.20;;;;;;;23.00;49.22;102029.94;5055455;28;20024;-61
2021/08/22 09:16:42;;;;;;;0.77;0.30;;;;;;;23.00;49.43;102026.34;5056008;28;20031;-61
2021/08/22 09:19:50;;;;;;;1.17;0.30;;;;;;;23.01;49.79;102031.69;5054915;28;20478;-62
2021/08/22 09:22:52;;;;;;;0.32;0.17;;;;;;;22.99;50.18;102025.50;4974017;28;20125;-60
2021/08/22 09:25:35;;;;;;;2.30;0.52;;;;;;;22.99;50.36;102022.75;4974417;28;20041;-61
2021/08/22 09:28:38;;;;;;;0.85;0.45;;;;;;;23.08;50.12;102026.34;4975840;28;20043;-62
2021/08/22 09:31:37;;;;;;;0.63;0.30;;;;;;;23.05;49.83;102034.94;4993221;28;20088;-61
2021/08/22 09:34:29;;;;;;;0.55;0.30;;;;;;;23.01;48.96;102026.22;4994610;28;20069;-60
2021/08/22 09:37:28;;;;;;;0.90;0.40;;;;;;;23.02;49.42;102033.41;4993472;28;20474;-61
2021/08/22 09:40:31;;;;;;;0.98;0.68;;;;;;;23.01;49.69;102031.69;4993132;28;20058;-61
2021/08/22 09:43:14;;;;;;;0.63;0.28;;;;;;;23.08;49.64;102042.81;4993073;28;20037;-61
2021/08/22 09:46:17;;;;;;;2.40;0.57;;;;;;;23.03;49.23;102043.34;4993255;28;20034;-61
2021/08/22 09:49:20;;;;;;;2.03;0.32;;;;;;;23.05;50.93;102044.03;4991531;28;20121;-62
2021/08/22 09:52:23;;;;;;;0.80;0.43;;;;;;;23.04;50.13;102035.97;4975928;28;20022;-61
2021/08/22 09:55:09;;;;;;;1.05;0.30;;;;;;;23.05;49.28;102044.03;4992010;28;20058;-61
2021/08/22 09:58:12;;;;;;;0.95;0.40;;;;;;;23.02;48.91;102047.13;4992499;28;20125;-61
2021/08/22 10:01:02;;;;;;;1.52;0.57;;;;;;;23.04;49.02;102045.06;5053919;28;20051;-62
2021/08/22 10:03:43;;;;;;;0.95;0.43;;;;;;;23.01;50.93;102042.66;5054965;28;20033;-61
2021/08/22 10:06:32;;;;;;;1.30;0.30;;;;;;;23.01;48.79;102042.66;5055439;28;20017;-60
2021/08/22 10:09:06;;;;;;;0.55;0.45;;;;;;;23.03;50.06;102039.75;5054010;28;20178;-62
2021/08/22 10:11:49;;;;;;;0.70;0.30;;;;;;;23.09;49.93;102039.91;5036347;28;20483;-61
2021/08/22 10:14:14;;;;;;;0.98;0.25;;;;;;;23.05;49.63;102038.53;5054005;28;20040;-62
2021/08/22 10:16:40;;;;;;;0.50;0.30;;;;;;;23.00;49.63;102042.81;5054124;28;20025;-61
2021/08/22 10:19:09;;;;;;;0.80;0.32;;;;;;;23.01;49.82;102048.16;5054261;28;20024;-60
2021/08/22 10:21:35;;;;;;;0.50;0.20;;;;;;;23.00;50.00;102040.91;5037135;28;20021;-62
2021/08/22 10:24:11;;;;;;;1.20;0.50;;;;;;;23.03;50.22;102046.09;5053650;28;20029;-62
2021/08/22 10:26:49;;;;;;;0.50;0.22;;;;;;;23.07;49.85;102041.09;5054104;28;20066;-62
2021/08/22 10:29:19;;;;;;;0.55;0.30;;;;;;;23.10;49.28;102043.50;5053820;28;20078;-62
2021/08/22 10:31:58;;;;;;;0.70;0.30;;;;;;;23.06;49.37;102051.22;5054474;28;20382;-62
2021/08/22 10:34:24;;;;;;;0.47;0.30;;;;;;;22.91;49.16;102052.94;5054042;28;20033;-61
2021/08/22 10:36:51;;;;;;;0.70;0.35;;;;;;;22.78;48.89;102052.56;5053546;28;20434;-61
2021/08/22 10:39:22;;;;;;;2.60;0.70;;;;;;;22.79;49.76;102063.38;5053431;28;20458;-60
2021/08/22 10:42:26;;;;;;;1.63;0.60;;;;;;;22.76;50.17;102054.63;5053669;28;20025;-62
2021/08/22 10:44:52;;;;;;;1.85;0.40;;;;;;;22.69;48.62;102053.63;4991603;28;20030;-62
2021/08/22 10:47:20;;;;;;;2.33;0.63;;;;;;;22.78;47.61;102063.53;4991949;28;20045;-61
2021/08/22 10:49:54;;;;;;;0.93;0.47;;;;;;;22.72;48.38;102061.50;4992090;28;20026;-63
2021/08/22 10:52:29;;;;;;;;;;;;;;;22.68;47.17;102062.88;4992369;28;20134;-61
2021/08/22 10:55:16;;;;;;;1.13;0.30;;;;;;;22.63;48.48;102065.25;4991244;28;19936;-62
2021/08/22 10:57:50;;;;;;;0.70;0.40;;;;;;;22.56;46.73;102053.25;4992376;28;20050;-61
2021/08/22 11:00:34;;;;;;;2.42;0.50;;;;;;;22.57;47.80;102072.28;4991290;28;20073;-60
2021/08/22 11:03:03;;;;;;;1.13;0.40;;;;;;;22.48;47.57;102062.31;4990962;28;20114;-62
2021/08/22 11:05:33;;;;;;;1.85;0.47;;;;;;;22.46;47.48;102061.63;4991465;28;20054;-61
2021/08/22 11:08:16;;;;;;;1.60;0.70;;;;;;;22.52;47.31;102074.69;4990826;28;20030;-62
2021/08/22 11:11:03;;;;;;;1.38;0.30;;;;;;;22.49;46.46;102075.00;4990851;28;20522;-61
2021/08/22 11:13:33;;;;;;;2.35;0.52;;;;;;;22.50;48.46;102071.22;4974437;28;20053;-61
2021/08/22 11:16:06;;;;;;;1.38;0.45;;;;;;;22.52;47.52;102075.53;4990715;28;20030;-61
2021/08/22 11:18:33;;;;;;;2.45;0.40;;;;;;;22.46;47.52;102076.19;5023279;28;20029;-61
2021/08/22 11:20:59;;;;;;;1.95;0.47;;;;;;;22.52;47.90;102075.53;5052230;28;20067;-61
2021/08/22 11:23:25;;;;;;;2.00;0.40;;;;;;;22.48;47.54;102079.59;5052422;28;20029;-61
2021/08/22 11:26:10;;;;;;;1.23;0.50;;;;;;;22.53;47.90;102081.88;5052224;28;20021;-60
2021/08/22 11:28:36;;;;;;;3.42;0.73;;;;;;;22.51;47.60;102081.19;5033877;28;20028;-61
2021/08/22 11:31:20;;;;;;;1.30;0.28;;;;;;;22.44;47.03;102078.25;5052677;28;20175;-62
2021/08/22 11:33:45;;;;;;;0.77;0.30;;;;;;;22.51;48.04;102078.44;5052614;28;20025;-61
2021/08/22 11:36:10;;;;;;;1.60;0.40;;;;;;;22.43;47.59;102082.00;5051893;28;20035;-62